Time;durP1;ratioP1;P1;durP2;ratioP2;P2;SDS_P1;SDS_P2;PMS_P1;PMS_P2;Temp;Humidity;BMP_temperature;BMP_pressure;BME280_temperature;BME280_humidity;BME280_pressure;Samples;Min_cycle;Max_cycle;Signal;HPM_P1;HPM_P2
2022/02/07 00:00:11;;;;;;;1.45;0.38;;;15.60;63.40;;;;;;5006438;28;20115;-62
2022/02/07 00:03:03;;;;;;;1.77;0.38;;;15.60;63.40;;;;;;5016416;28;20053;-62
2022/02/07 00:05:27;;;;;;;1.38;0.55;;;15.60;63.30;;;;;;5020951;28;20022;-61
2022/02/07 00:07:53;;;;;;;2.50;2.28;;;15.60;63.20;;;;;;5012492;28;20030;-61
2022/02/07 00:10:19;;;;;;;3.65;0.38;;;15.60;63.20;;;;;;5016883;28;20084;-60
2022/02/07 00:12:47;;;;;;;2.33;0.50;;;15.70;63.20;;;;;;5014374;28;20100;-61
2022/02/07 00:15:14;;;;;;;2.17;0.57;;;15.60;63.20;;;;;;5011801;28;20033;-61
2022/02/07 00:17:39;;;;;;;1.00;0.50;;;15.60;63.10;;;;;;5015320;28;20558;-62
2022/02/07 00:20:10;;;;;;;2.55;0.60;;;15.60;63.00;;;;;;5008126;28;20038;-60
2022/02/07 00:22:35;;;;;;;2.83;0.52;;;15.70;63.20;;;;;;5013297;28;20106;-62
2022/02/07 00:25:01;;;;;;;1.95;0.57;;;15.70;63.00;;;;;;5013269;28;20033;-61
2022/02/07 00:27:26;;;;;;;1.95;0.73;;;15.60;63.00;;;;;;5012541;28;20030;-61
2022/02/07 00:29:52;;;;;;;1.27;0.60;;;15.60;62.90;;;;;;5013510;28;21539;-62
2022/02/07 00:32:17;;;;;;;1.30;0.40;;;15.60;62.90;;;;;;5019225;28;20044;-61
2022/02/07 00:34:43;;;;;;;1.70;0.47;;;15.60;62.80;;;;;;5019552;28;20030;-61
2022/02/07 00:37:08;;;;;;;4.47;0.63;;;15.60;62.70;;;;;;5016274;28;20385;-62
2022/02/07 00:39:46;;;;;;;1.98;0.50;;;15.60;62.70;;;;;;5020401;28;20112;-62
2022/02/07 00:42:22;;;;;;;1.42;0.40;;;15.70;62.60;;;;;;5013091;28;20030;-61
2022/02/07 00:44:49;;;;;;;;;;;15.70;62.60;;;;;;5020933;28;20061;-62
2022/02/07 00:47:15;;;;;;;2.03;0.50;;;15.70;62.50;;;;;;5017189;28;20439;-61
2022/02/07 00:49:41;;;;;;;1.70;0.60;;;15.70;62.50;;;;;;5014014;28;20441;-62
2022/02/07 00:52:07;;;;;;;0.60;0.30;;;15.70;62.40;;;;;;5015827;28;20030;-61
2022/02/07 00:54:32;;;;;;;0.88;0.30;;;15.70;62.40;;;;;;5008156;28;20041;-61
2022/02/07 00:56:58;;;;;;;3.70;0.40;;;15.70;62.40;;;;;;5017370;28;20034;-62
2022/02/07 00:59:23;;;;;;;1.30;0.40;;;15.70;62.40;;;;;;5016837;28;20030;-61
2022/02/07 01:01:49;;;;;;;2.80;0.70;;;15.70;62.30;;;;;;5020904;28;20026;-61
2022/02/07 01:04:14;;;;;;;0.90;0.40;;;15.70;62.30;;;;;;5014038;28;20429;-61
2022/02/07 01:06:40;;;;;;;1.58;0.55;;;15.70;62.30;;;;;;5007185;28;20030;-61
2022/02/07 01:17:52;;;;;;;0.40;0.30;;;15.70;62.10;;;;;;5008714;28;20040;-61
2022/02/07 01:23:11;;;;;;;2.60;0.30;;;15.70;62.10;;;;;;5004793;28;20573;-60
2022/02/07 01:48:09;;;;;;;0.28;0.17;;;15.70;61.80;;;;;;5019964;28;20550;-61
2022/02/07 01:53:25;;;;;;;0.98;0.40;;;15.70;61.70;;;;;;5012535;28;20092;-61
2022/02/07 01:55:56;;;;;;;1.70;0.40;;;15.70;61.70;;;;;;5022219;28;20590;-61
2022/02/07 01:58:21;;;;;;;0.57;0.25;;;15.70;61.60;;;;;;5014566;28;20033;-61
2022/02/07 02:00:47;;;;;;;0.22;0.10;;;15.80;61.70;;;;;;5016856;28;21565;-61
2022/02/07 02:03:12;;;;;;;1.05;0.32;;;15.70;61.50;;;;;;5015998;28;20033;-62
2022/02/07 02:05:38;;;;;;;0.65;0.30;;;15.80;61.60;;;;;;5012391;28;20429;-61
2022/02/07 02:08:06;;;;;;;1.05;0.50;;;15.70;61.50;;;;;;5008435;28;20066;-60
2022/02/07 02:10:32;;;;;;;1.38;0.30;;;15.70;61.50;;;;;;5022768;28;20613;-62
2022/02/07 02:13:08;;;;;;;1.13;0.20;;;15.70;61.50;;;;;;5012803;28;20129;-62
2022/02/07 02:15:49;;;;;;;2.28;0.40;;;15.70;61.50;;;;;;5022998;28;20030;-62
2022/02/07 02:18:52;;;;;;;2.20;0.52;;;15.70;61.40;;;;;;5010579;28;20516;-62
2022/02/07 02:32:42;;;;;;;1.38;0.85;;;15.70;61.40;;;;;;5015987;28;20119;-61
2022/02/07 02:45:36;;;;;;;1.77;0.55;;;15.70;61.10;;;;;;5009771;28;20084;-62
2022/02/07 02:48:07;;;;;;;0.57;0.10;;;15.70;61.00;;;;;;5009436;28;20515;-61
2022/02/07 02:50:35;;;;;;;0.73;0.30;;;15.70;61.00;;;;;;5019873;28;20034;-62
2022/02/07 02:53:09;;;;;;;0.85;0.30;;;15.70;61.00;;;;;;5016028;28;20025;-62
2022/02/07 02:55:36;;;;;;;2.22;0.20;;;15.70;61.00;;;;;;5009701;28;20041;-62
2022/02/07 02:58:02;;;;;;;0.32;0.17;;;15.70;60.90;;;;;;5010583;28;20087;-62
2022/02/07 03:00:28;;;;;;;1.55;0.20;;;15.70;60.90;;;;;;5010991;28;20109;-62
2022/02/07 03:02:54;;;;;;;1.08;0.40;;;15.70;60.80;;;;;;5013325;28;20571;-62
2022/02/07 03:05:19;;;;;;;0.30;0.20;;;15.70;60.80;;;;;;5018709;28;20052;-62
2022/02/07 03:07:45;;;;;;;0.50;0.20;;;15.70;60.80;;;;;;5016355;28;20104;-61
2022/02/07 03:10:11;;;;;;;0.60;0.20;;;15.70;60.70;;;;;;5008683;28;20042;-61
2022/02/07 03:12:57;;;;;;;0.40;0.28;;;15.70;60.80;;;;;;5004816;28;20030;-62
2022/02/07 03:18:06;;;;;;;0.30;0.20;;;15.70;60.60;;;;;;5010640;28;20563;-61
2022/02/07 03:20:32;;;;;;;0.77;0.20;;;15.70;60.60;;;;;;5011582;28;20042;-62
2022/02/07 03:22:57;;;;;;;0.63;0.15;;;15.70;60.60;;;;;;5009576;28;20079;-61
2022/02/07 03:25:23;;;;;;;1.38;0.22;;;15.70;60.60;;;;;;5017821;28;20021;-61
2022/02/07 03:27:48;;;;;;;1.38;0.17;;;15.70;60.60;;;;;;5007383;28;20045;-61
2022/02/07 03:30:14;;;;;;;0.45;0.22;;;15.70;60.50;;;;;;5010147;28;20113;-61
2022/02/07 03:32:39;;;;;;;0.90;0.20;;;15.70;60.50;;;;;;5010211;28;20034;-61
2022/02/07 03:35:05;;;;;;;1.55;0.15;;;15.70;60.40;;;;;;5004143;28;20041;-62
2022/02/07 03:37:31;;;;;;;0.68;0.52;;;15.70;60.50;;;;;;5009346;28;20485;-62
2022/02/07 03:39:56;;;;;;;0.22;0.10;;;15.70;60.40;;;;;;5013609;28;20034;-62
2022/02/07 03:42:22;;;;;;;0.52;0.17;;;15.70;60.40;;;;;;5008494;28;20034;-61
2022/02/07 03:44:47;;;;;;;0.68;0.20;;;15.70;60.40;;;;;;5016900;28;20378;-62
2022/02/07 03:47:13;;;;;;;0.82;0.20;;;15.70;60.40;;;;;;5022451;28;20040;-61
2022/02/07 03:49:38;;;;;;;0.98;0.40;;;15.70;60.40;;;;;;5020588;28;20029;-61
2022/02/07 03:52:08;;;;;;;0.40;0.17;;;15.80;60.40;;;;;;5014096;28;20515;-62
2022/02/07 03:54:34;;;;;;;0.55;0.22;;;15.70;60.30;;;;;;5026169;28;20084;-62
2022/02/07 03:57:00;;;;;;;0.20;0.20;;;15.70;60.40;;;;;;5019210;28;20447;-62
2022/02/07 03:59:25;;;;;;;0.75;0.15;;;15.70;60.30;;;;;;5021751;28;20068;-61
2022/02/07 04:01:51;;;;;;;0.63;0.22;;;15.70;60.30;;;;;;5018377;28;20757;-62
2022/02/07 04:04:16;;;;;;;0.30;0.13;;;15.70;60.30;;;;;;5013868;28;20029;-61
2022/02/07 04:06:42;;;;;;;0.40;0.20;;;15.70;60.30;;;;;;5010055;28;20038;-61
2022/02/07 04:09:10;;;;;;;0.38;0.15;;;15.70;60.30;;;;;;5018557;28;20505;-62
2022/02/07 04:11:43;;;;;;;0.20;0.10;;;15.70;60.20;;;;;;5010477;28;20068;-61
2022/02/07 04:14:10;;;;;;;0.60;0.20;;;15.70;60.20;;;;;;5010091;28;20749;-61
2022/02/07 04:16:38;;;;;;;0.45;0.20;;;15.70;60.20;;;;;;5022966;28;20109;-61
2022/02/07 04:21:30;;;;;;;0.80;0.25;;;15.70;60.10;;;;;;5022185;28;20049;-62
2022/02/07 04:23:55;;;;;;;0.10;0.10;;;15.70;60.10;;;;;;5013249;28;20503;-61
2022/02/07 04:26:21;;;;;;;0.55;0.10;;;15.70;60.10;;;;;;5022765;28;20034;-61
2022/02/07 04:28:46;;;;;;;0.43;0.20;;;15.80;60.10;;;;;;5017847;28;20030;-62
2022/02/07 04:31:12;;;;;;;0.45;0.20;;;15.80;60.10;;;;;;5014289;28;20060;-61
2022/02/07 04:33:37;;;;;;;1.05;0.40;;;15.70;60.00;;;;;;5026846;28;20492;-62
2022/02/07 04:36:03;;;;;;;0.15;0.10;;;15.70;59.90;;;;;;5016855;28;20429;-62
2022/02/07 04:38:29;;;;;;;1.45;0.25;;;15.80;59.90;;;;;;5019016;28;20686;-61
2022/02/07 04:40:54;;;;;;;0.85;0.30;;;15.80;59.90;;;;;;5018069;28;20026;-61
2022/02/07 04:43:20;;;;;;;0.88;0.28;;;15.70;59.80;;;;;;5012454;28;20485;-61
2022/02/07 04:46:05;;;;;;;0.68;0.20;;;15.80;59.80;;;;;;5013144;28;20038;-61
2022/02/07 04:51:42;;;;;;;0.50;0.20;;;15.70;59.70;;;;;;5015408;28;20651;-61
2022/02/07 04:54:19;;;;;;;0.20;0.10;;;15.80;59.70;;;;;;5011309;28;20037;-62
2022/02/07 04:59:40;;;;;;;0.10;0.10;;;15.80;59.60;;;;;;5023749;28;20037;-62
2022/02/07 05:02:27;;;;;;;0.65;0.17;;;15.80;59.60;;;;;;5006722;28;20030;-61
2022/02/07 05:05:07;;;;;;;2.88;0.13;;;15.70;59.50;;;;;;5022329;28;20033;-61
2022/02/07 05:15:47;;;;;;;0.22;0.20;;;15.80;59.70;;;;;;5017705;28;20044;-62
2022/02/07 05:18:12;;;;;;;0.95;0.40;;;15.80;59.70;;;;;;5024602;28;20033;-62
2022/02/07 05:20:38;;;;;;;0.52;0.10;;;15.80;59.70;;;;;;5014392;28;20030;-62
2022/02/07 05:23:03;;;;;;;0.47;0.20;;;15.80;59.60;;;;;;5016509;28;20041;-61
2022/02/07 05:25:29;;;;;;;0.52;0.20;;;15.80;59.60;;;;;;5015663;28;20493;-62
2022/02/07 05:27:55;;;;;;;1.48;0.25;;;15.80;59.50;;;;;;5010928;28;20033;-62
2022/02/07 05:30:20;;;;;;;2.20;0.30;;;15.80;59.50;;;;;;5011563;28;20128;-58
2022/02/07 05:32:46;;;;;;;1.20;0.30;;;15.80;59.40;;;;;;5008913;28;20026;-62
2022/02/07 05:35:11;;;;;;;1.23;0.25;;;15.80;59.40;;;;;;5011843;28;20043;-62
2022/02/07 05:37:37;;;;;;;0.60;0.13;;;15.80;59.40;;;;;;5016889;28;20459;-62
2022/02/07 05:40:08;;;;;;;0.90;0.20;;;15.80;59.30;;;;;;5011727;28;20038;-62
2022/02/07 05:42:35;;;;;;;0.30;0.20;;;15.80;59.30;;;;;;5019311;28;20037;-62
2022/02/07 05:45:02;;;;;;;0.60;0.20;;;15.80;59.30;;;;;;5013158;28;20789;-63
2022/02/07 05:47:28;;;;;;;1.08;0.30;;;15.80;59.20;;;;;;5008190;28;20056;-62
2022/02/07 05:49:53;;;;;;;0.98;0.30;;;15.80;59.20;;;;;;5019220;28;20029;-61
2022/02/07 05:52:19;;;;;;;1.23;0.32;;;15.80;59.20;;;;;;5013370;28;20034;-62
2022/02/07 05:54:45;;;;;;;0.40;0.20;;;15.80;59.20;;;;;;5009371;28;20029;-62
2022/02/07 05:57:11;;;;;;;1.17;0.20;;;15.80;59.10;;;;;;5015016;28;20036;-62
2022/02/07 05:59:37;;;;;;;0.77;0.57;;;15.80;59.10;;;;;;5016333;22;20050;-75
2022/02/07 06:02:02;;;;;;;0.98;0.10;;;15.80;59.00;;;;;;5003094;28;20030;-74
2022/02/07 06:04:28;;;;;;;0.30;0.20;;;15.80;59.00;;;;;;5007233;28;20034;-73
2022/02/07 06:06:53;;;;;;;2.72;0.30;;;15.80;59.00;;;;;;4989155;28;20021;-74
2022/02/07 06:09:19;;;;;;;4.75;0.40;;;15.80;59.00;;;;;;5021591;28;20041;-73
2022/02/07 06:11:44;;;;;;;2.25;0.40;;;15.80;59.10;;;;;;5008796;28;20076;-77
2022/02/07 06:14:10;;;;;;;3.30;0.25;;;15.80;59.10;;;;;;5004689;28;20045;-74
2022/02/07 06:16:36;;;;;;;4.65;0.73;;;15.80;59.30;;;;;;4990172;28;20026;-74
2022/02/07 06:19:02;;;;;;;2.38;0.40;;;15.80;59.30;;;;;;5005000;28;20527;-75
2022/02/07 06:21:29;;;;;;;1.60;0.55;;;15.80;59.30;;;;;;5006142;28;20033;-75
2022/02/07 06:23:55;;;;;;;4.07;0.45;;;15.80;59.20;;;;;;5004233;28;20042;-74
2022/02/07 06:26:20;;;;;;;0.75;0.40;;;15.80;59.20;;;;;;5007379;28;20551;-74
2022/02/07 06:28:46;;;;;;;3.63;0.50;;;15.80;59.20;;;;;;5010133;28;20559;-74
2022/02/07 06:31:11;;;;;;;1.80;0.60;;;15.80;59.30;;;;;;5011755;28;20037;-74
2022/02/07 06:33:37;;;;;;;1.65;0.50;;;15.80;59.50;;;;;;5004432;28;20036;-74
2022/02/07 06:36:03;;;;;;;3.47;0.45;;;15.70;59.50;;;;;;5036518;22;20044;-59
2022/02/07 06:38:28;;;;;;;3.65;0.90;;;15.80;59.40;;;;;;5037064;28;20060;-57
2022/02/07 06:40:54;;;;;;;4.18;1.20;;;15.70;59.20;;;;;;5029043;28;20037;-57
2022/02/07 06:43:19;;;;;;;5.53;2.55;;;15.70;59.20;;;;;;5031609;28;20560;-58
2022/02/07 06:45:45;;;;;;;5.60;2.72;;;15.70;59.20;;;;;;5020566;28;20502;-58
2022/02/07 06:48:11;;;;;;;7.50;3.33;;;15.70;59.20;;;;;;5021349;28;20053;-59
2022/02/07 06:50:37;;;;;;;8.75;3.33;;;15.80;59.10;;;;;;5020858;28;20037;-55
2022/02/07 06:53:02;;;;;;;10.95;3.50;;;15.80;59.00;;;;;;5021984;28;20630;-57
2022/02/07 06:55:28;;;;;;;7.13;3.25;;;15.80;58.90;;;;;;5021710;28;20025;-56
2022/02/07 06:57:53;;;;;;;11.65;3.45;;;15.80;58.80;;;;;;5021864;28;20386;-58
2022/02/07 07:00:19;;;;;;;12.40;3.63;;;15.80;58.70;;;;;;5021476;28;20033;-57
2022/02/07 07:02:47;;;;;;;8.27;2.95;;;15.80;58.60;;;;;;5021580;28;20034;-56
2022/02/07 07:05:14;;;;;;;7.95;3.13;;;15.80;58.50;;;;;;5021729;28;20458;-59
2022/02/07 07:07:40;;;;;;;13.20;2.97;;;15.70;58.30;;;;;;5021843;28;20482;-58
2022/02/07 07:10:06;;;;;;;6.63;2.70;;;15.70;58.90;;;;;;5003951;28;20065;-59
2022/02/07 07:12:32;;;;;;;7.60;2.63;;;15.70;58.10;;;;;;5004117;28;20084;-58
2022/02/07 07:15:12;;;;;;;6.85;2.50;;;15.80;58.10;;;;;;5021732;28;20033;-55
2022/02/07 07:17:37;;;;;;;4.32;1.90;;;15.70;57.90;;;;;;5022054;28;20032;-58
2022/02/07 07:20:05;;;;;;;5.60;2.33;;;15.70;57.90;;;;;;5020982;28;20413;-59
2022/02/07 07:22:31;;;;;;;5.55;2.70;;;15.70;57.80;;;;;;5022561;28;20033;-59
2022/02/07 07:24:58;;;;;;;7.55;2.42;;;15.70;57.70;;;;;;5021598;28;20055;-59
2022/02/07 07:27:26;;;;;;;6.32;2.78;;;15.70;57.60;;;;;;5021801;28;20044;-57
2022/02/07 07:29:52;;;;;;;7.47;1.92;;;15.70;57.50;;;;;;5020167;28;20268;-59
2022/02/07 07:32:22;;;;;;;8.00;2.33;;;15.80;57.50;;;;;;5022040;28;20036;-57
2022/02/07 07:34:47;;;;;;;5.13;1.80;;;15.80;57.50;;;;;;5020742;28;20518;-59
2022/02/07 07:37:13;;;;;;;8.32;2.42;;;15.70;57.40;;;;;;5021259;28;20124;-59
2022/02/07 07:39:38;;;;;;;5.82;2.90;;;15.70;58.10;;;;;;5020470;28;20101;-58
2022/02/07 07:42:04;;;;;;;5.85;2.67;;;15.70;57.60;;;;;;5020869;28;20030;-59
2022/02/07 07:44:33;;;;;;;8.75;2.83;;;15.70;57.60;;;;;;5021873;28;20034;-57
2022/02/07 07:47:07;;;;;;;10.98;2.63;;;15.70;57.50;;;;;;5021355;28;20469;-59
2022/02/07 07:49:40;;;;;;;6.60;2.72;;;15.70;57.50;;;;;;5020588;28;20152;-59
2022/02/07 07:52:13;;;;;;;11.15;2.85;;;15.70;57.50;;;;;;5017699;28;20040;-58
2022/02/07 07:54:49;;;;;;;10.02;1.98;;;15.70;57.60;;;;;;5021022;28;20429;-58
2022/02/07 08:02:46;;;;;;;12.18;5.75;;;15.70;58.40;;;;;;5006047;28;20095;-60
2022/02/07 08:05:22;;;;;;;11.80;5.60;;;15.60;58.90;;;;;;5003149;28;20037;-57
2022/02/07 08:07:53;;;;;;;16.35;5.47;;;15.60;59.20;;;;;;5018719;28;20030;-58
2022/02/07 08:11:20;;;;;;;11.77;5.30;;;15.60;59.30;;;;;;5019684;28;20033;-56
2022/02/07 08:13:17;;;;;;;13.52;5.28;;;15.70;59.40;;;;;;5003130;28;20084;-59
2022/02/07 08:15:42;;;;;;;9.20;5.22;;;15.70;59.40;;;;;;5019490;28;20033;-58
2022/02/07 08:18:08;;;;;;;8.85;4.32;;;15.70;59.20;;;;;;5020615;28;20238;-58
2022/02/07 08:20:33;;;;;;;11.18;4.97;;;15.70;59.10;;;;;;5020352;28;20506;-58
2022/02/07 08:23:06;;;;;;;9.45;4.45;;;15.70;59.00;;;;;;5021313;28;20112;-58
2022/02/07 08:25:32;;;;;;;9.50;4.80;;;15.70;58.90;;;;;;5020009;28;20030;-64
2022/02/07 08:27:57;;;;;;;11.85;4.60;;;15.70;58.90;;;;;;5007288;28;20692;-59
2022/02/07 08:30:23;;;;;;;14.90;4.30;;;15.70;58.80;;;;;;5022542;28;20083;-58
2022/02/07 08:32:48;;;;;;;8.38;3.92;;;15.70;58.70;;;;;;5024362;28;20030;-58
2022/02/07 08:35:14;;;;;;;9.90;4.20;;;15.60;58.60;;;;;;5023410;28;20491;-58
2022/02/07 08:37:39;;;;;;;10.02;4.38;;;15.60;58.60;;;;;;5006249;28;20132;-58
2022/02/07 08:40:05;;;;;;;8.10;3.40;;;15.60;58.60;;;;;;5023167;28;20030;-58
2022/02/07 08:42:31;;;;;;;8.45;3.47;;;15.70;58.60;;;;;;5024122;28;20041;-58
2022/02/07 08:44:56;;;;;;;7.35;3.47;;;15.60;58.50;;;;;;5023329;28;20037;-58
2022/02/07 08:47:23;;;;;;;10.20;3.30;;;15.70;58.50;;;;;;5024162;28;20541;-58
2022/02/07 08:49:48;;;;;;;7.07;3.33;;;15.70;58.50;;;;;;5005619;28;20038;-57
2022/02/07 08:52:16;;;;;;;6.65;3.47;;;15.70;58.50;;;;;;5023943;28;20041;-58
2022/02/07 08:54:41;;;;;;;8.63;2.80;;;15.70;58.40;;;;;;5023356;28;20029;-59
2022/02/07 08:57:15;;;;;;;7.30;3.35;;;15.70;58.40;;;;;;5024283;28;20033;-58
2022/02/07 09:05:08;;;;;;;8.02;3.08;;;15.60;58.40;;;;;;5023175;28;19916;-57
2022/02/07 09:07:36;;;;;;;6.38;3.05;;;15.60;58.30;;;;;;5023377;28;20036;-58
2022/02/07 09:10:03;;;;;;;5.50;2.60;;;15.60;58.30;;;;;;4985968;28;20050;-63
2022/02/07 09:12:28;;;;;;;5.22;2.85;;;15.70;58.30;;;;;;5024207;28;20038;-59
2022/02/07 09:15:07;;;;;;;6.75;2.63;;;15.60;58.20;;;;;;5005095;28;20127;-58
2022/02/07 09:17:33;;;;;;;4.88;2.25;;;15.60;58.20;;;;;;5005348;28;20041;-58
2022/02/07 09:19:58;;;;;;;6.10;2.60;;;15.60;58.20;;;;;;5022497;28;20033;-58
2022/02/07 09:22:24;;;;;;;4.95;2.45;;;15.60;58.20;;;;;;5022621;28;20040;-58
2022/02/07 09:24:49;;;;;;;7.03;2.50;;;15.70;58.20;;;;;;5022934;28;20542;-57
2022/02/07 09:27:15;;;;;;;5.95;2.42;;;15.60;58.10;;;;;;5023463;28;20526;-58
2022/02/07 09:29:40;;;;;;;5.68;2.30;;;15.60;58.00;;;;;;5021573;28;20068;-57
2022/02/07 09:32:06;;;;;;;6.45;2.35;;;15.70;58.10;;;;;;5022766;28;20399;-58
2022/02/07 09:34:32;;;;;;;5.13;2.30;;;15.60;58.10;;;;;;5023230;28;20472;-58
2022/02/07 09:36:58;;;;;;;3.95;2.00;;;15.70;58.10;;;;;;5021585;28;20041;-59
2022/02/07 09:39:30;;;;;;;5.20;2.13;;;15.70;58.10;;;;;;5022176;28;20643;-55
2022/02/07 09:41:57;;;;;;;2.72;1.73;;;15.70;58.10;;;;;;5004116;28;20467;-58
2022/02/07 09:44:23;;;;;;;3.88;1.80;;;15.60;58.00;;;;;;5020721;28;20037;-58
2022/02/07 09:46:48;;;;;;;3.38;2.00;;;15.60;58.00;;;;;;5005093;28;20486;-58
2022/02/07 09:49:14;;;;;;;3.25;2.13;;;15.60;58.10;;;;;;4992555;28;20033;-58
2022/02/07 09:51:43;;;;;;;3.28;1.92;;;15.60;58.10;;;;;;5021941;28;20112;-58
2022/02/07 09:54:09;;;;;;;8.02;1.90;;;15.60;58.10;;;;;;5005147;28;20034;-59
2022/02/07 09:56:35;;;;;;;3.88;1.95;;;15.70;58.10;;;;;;5004254;28;20026;-60
2022/02/07 09:59:00;;;;;;;5.43;2.72;;;15.70;58.10;;;;;;5022648;28;20154;-56
2022/02/07 10:01:29;;;;;;;3.67;1.90;;;15.70;58.10;;;;;;5004279;28;20116;-59
2022/02/07 10:06:45;;;;;;;4.50;1.63;;;15.60;58.10;;;;;;5020935;28;20040;-59
2022/02/07 10:09:35;;;;;;;3.13;1.80;;;15.60;58.00;;;;;;5021557;28;20041;-59
2022/02/07 10:12:11;;;;;;;2.53;1.70;;;15.70;58.10;;;;;;5007972;28;20030;-60
2022/02/07 10:15:04;;;;;;;3.72;1.58;;;15.60;58.10;;;;;;5021438;28;20371;-58
2022/02/07 10:37:11;;;;;;;3.25;1.60;;;15.60;58.00;;;;;;5021184;28;20068;-59
2022/02/07 10:39:35;;;;;;;5.60;1.80;;;15.60;58.00;;;;;;5016803;28;20562;-58
2022/02/07 10:42:30;;;;;;;3.67;1.80;;;15.60;58.00;;;;;;5022067;28;20116;-58
2022/02/07 10:44:58;;;;;;;3.95;1.38;;;15.70;58.10;;;;;;5017413;28;20040;-56
2022/02/07 10:47:28;;;;;;;1.85;1.15;;;15.60;58.10;;;;;;5021251;28;20099;-59
2022/02/07 10:50:18;;;;;;;3.95;1.45;;;15.60;58.70;;;;;;5019916;28;20020;-59
2022/02/07 10:52:50;;;;;;;3.88;1.17;;;15.60;58.00;;;;;;5022187;28;20117;-59
2022/02/07 10:55:35;;;;;;;3.25;1.50;;;15.60;58.00;;;;;;5022367;28;20034;-59
2022/02/07 10:58:03;;;;;;;2.77;1.47;;;15.60;58.10;;;;;;5019033;28;20040;-59
2022/02/07 11:00:53;;;;;;;3.03;1.38;;;15.60;58.50;;;;;;5020324;28;20120;-59
2022/02/07 11:03:22;;;;;;;2.47;1.27;;;15.60;59.00;;;;;;5006608;28;20022;-59
2022/02/07 11:05:51;;;;;;;3.63;1.40;;;15.60;59.60;;;;;;5021454;28;20025;-59
2022/02/07 11:08:23;;;;;;;5.00;1.23;;;15.60;60.00;;;;;;5004485;28;20080;-57
2022/02/07 11:14:04;;;;;;;4.38;1.75;;;15.70;60.90;;;;;;5022260;28;20030;-59
2022/02/07 11:19:09;;;;;;;4.55;1.40;;;15.70;61.90;;;;;;4991628;28;20606;-59
2022/02/07 11:21:40;;;;;;;2.50;1.38;;;15.70;62.10;;;;;;4987483;28;20072;-62
2022/02/07 11:27:40;;;;;;;4.45;1.13;;;15.70;62.30;;;;;;5017418;28;20048;-58
2022/02/07 11:30:10;;;;;;;2.67;1.40;;;15.70;62.60;;;;;;5017684;28;20088;-59
2022/02/07 11:32:42;;;;;;;4.35;1.30;;;15.70;62.70;;;;;;5020587;28;20037;-59
2022/02/07 11:35:35;;;;;;;5.82;1.30;;;15.70;62.80;;;;;;5020440;28;20037;-57
2022/02/07 11:38:07;;;;;;;3.78;1.50;;;15.70;62.80;;;;;;5019608;28;20379;-57
2022/02/07 11:40:33;;;;;;;4.57;1.35;;;15.70;62.80;;;;;;4993182;28;20088;-58
2022/02/07 11:43:11;;;;;;;2.42;1.25;;;15.70;63.00;;;;;;5021255;28;20462;-58
2022/02/07 11:45:52;;;;;;;3.10;1.10;;;15.70;63.00;;;;;;5018455;28;20034;-57
2022/02/07 11:48:33;;;;;;;3.33;1.30;;;15.70;63.00;;;;;;5009268;28;20107;-58
2022/02/07 11:51:01;;;;;;;4.55;1.17;;;15.70;63.00;;;;;;5011596;28;20029;-57
2022/02/07 11:53:44;;;;;;;6.10;1.73;;;15.70;63.10;;;;;;5003048;28;20030;-59
2022/02/07 11:56:16;;;;;;;2.97;1.40;;;15.70;63.10;;;;;;5017807;28;20454;-57
2022/02/07 11:58:58;;;;;;;2.42;1.17;;;15.70;63.00;;;;;;5002532;28;20630;-56
2022/02/07 12:01:45;;;;;;;3.70;0.95;;;15.70;63.00;;;;;;5052369;22;20399;-58
2022/02/07 12:04:10;;;;;;;2.10;1.20;;;15.70;63.10;;;;;;5048060;28;20064;-56
2022/02/07 12:06:36;;;;;;;4.35;1.27;;;15.70;63.20;;;;;;5026593;28;20041;-60
2022/02/07 12:09:03;;;;;;;2.83;1.20;;;15.70;63.10;;;;;;5044392;28;20033;-55
2022/02/07 12:11:44;;;;;;;3.47;1.10;;;15.70;63.00;;;;;;5027211;28;20123;-60
2022/02/07 12:14:32;;;;;;;3.55;1.38;;;15.70;63.00;;;;;;5026458;28;20116;-60
2022/02/07 12:16:58;;;;;;;2.58;0.90;;;15.70;62.80;;;;;;5043510;28;20600;-54
2022/02/07 12:19:36;;;;;;;8.25;1.25;;;15.70;62.50;;;;;;5026643;28;20112;-56
2022/02/07 12:22:17;;;;;;;4.00;0.98;;;15.70;62.30;;;;;;5041407;28;20415;-58
2022/02/07 12:24:56;;;;;;;3.85;1.00;;;15.70;62.10;;;;;;5042502;28;20025;-60
2022/02/07 12:27:22;;;;;;;3.35;1.45;;;15.80;61.90;;;;;;5027605;28;20063;-56
2022/02/07 12:30:05;;;;;;;3.15;0.80;;;15.70;61.70;;;;;;5026010;28;20029;-56
2022/02/07 12:32:31;;;;;;;2.85;1.10;;;15.70;61.50;;;;;;5013172;28;20025;-57
2022/02/07 12:34:56;;;;;;;3.90;1.73;;;15.70;61.30;;;;;;5026542;28;20056;-60
2022/02/07 12:37:23;;;;;;;3.53;1.10;;;15.70;61.30;;;;;;5026681;28;20033;-59
2022/02/07 12:39:49;;;;;;;6.80;1.65;;;15.70;61.20;;;;;;5043666;28;20099;-56
2022/02/07 12:42:14;;;;;;;5.32;1.35;;;15.70;61.10;;;;;;5026714;28;20033;-56
2022/02/07 12:44:40;;;;;;;5.63;1.30;;;15.70;61.10;;;;;;5023398;28;20394;-59
2022/02/07 12:47:07;;;;;;;4.90;1.20;;;15.80;61.20;;;;;;5044275;28;20045;-54
2022/02/07 12:49:36;;;;;;;4.13;1.17;;;15.70;61.10;;;;;;5041972;28;20048;-55
2022/02/07 12:52:01;;;;;;;3.75;1.30;;;15.70;61.20;;;;;;5038980;28;20144;-56
2022/02/07 12:54:27;;;;;;;3.53;0.93;;;15.70;61.20;;;;;;5024935;28;20457;-54
2022/02/07 12:56:58;;;;;;;2.22;1.00;;;15.70;61.30;;;;;;5015303;28;20021;-55
2022/02/07 12:59:25;;;;;;;4.13;0.90;;;15.70;61.40;;;;;;5010621;28;20025;-53
2022/02/07 13:01:50;;;;;;;4.28;1.10;;;15.70;61.40;;;;;;5041584;28;20082;-55
2022/02/07 13:04:20;;;;;;;1.92;0.90;;;15.70;61.50;;;;;;4997934;28;20037;-55
2022/02/07 13:06:53;;;;;;;6.28;1.23;;;15.70;61.60;;;;;;5023411;28;20028;-54
2022/02/07 13:09:28;;;;;;;6.93;1.17;;;15.70;61.70;;;;;;5025776;28;20037;-57
2022/02/07 13:14:27;;;;;;;5.38;1.10;;;15.70;61.70;;;;;;5026016;28;20033;-56
2022/02/07 13:16:52;;;;;;;5.68;1.15;;;15.70;61.80;;;;;;5026105;28;20040;-56
2022/02/07 13:19:20;;;;;;;3.95;1.02;;;15.70;61.80;;;;;;5025722;28;20096;-60
2022/02/07 13:21:48;;;;;;;6.20;1.20;;;15.70;61.80;;;;;;5025541;28;20496;-58
2022/02/07 13:24:21;;;;;;;5.30;0.90;;;15.70;61.90;;;;;;5044010;28;20500;-59
2022/02/07 13:26:51;;;;;;;2.42;0.90;;;15.70;62.00;;;;;;5024686;28;20100;-56
2022/02/07 13:29:21;;;;;;;3.28;1.45;;;15.70;61.90;;;;;;5025169;28;20059;-54
2022/02/07 13:31:56;;;;;;;6.32;2.28;;;15.70;62.00;;;;;;5043385;28;20082;-58
2022/02/07 13:34:23;;;;;;;4.97;0.95;;;15.70;62.00;;;;;;5016061;28;20565;-60
2022/02/07 13:36:51;;;;;;;6.50;1.33;;;15.70;62.00;;;;;;5025498;28;20032;-52
2022/02/07 13:39:19;;;;;;;3.17;1.20;;;15.70;62.00;;;;;;5008527;28;20447;-59
2022/02/07 13:42:01;;;;;;;2.80;0.93;;;15.70;62.00;;;;;;5043368;28;20048;-59
2022/02/07 13:44:29;;;;;;;1.85;0.85;;;15.70;62.10;;;;;;5041962;28;20679;-60
2022/02/07 13:47:02;;;;;;;5.88;1.40;;;15.70;62.00;;;;;;5025383;28;20509;-59
2022/02/07 13:49:28;;;;;;;5.07;1.33;;;15.70;62.00;;;;;;5031608;28;20033;-56
2022/02/07 13:51:53;;;;;;;3.55;0.90;;;15.70;62.00;;;;;;5009182;28;20099;-55
2022/02/07 13:54:29;;;;;;;3.20;0.80;;;15.70;61.80;;;;;;5043420;28;20214;-58
2022/02/07 13:56:59;;;;;;;2.85;0.90;;;15.70;61.80;;;;;;5042974;28;20434;-58
2022/02/07 13:59:24;;;;;;;2.15;0.82;;;15.70;61.70;;;;;;5015344;28;20028;-57
2022/02/07 14:01:51;;;;;;;3.17;0.90;;;15.70;61.60;;;;;;5009279;28;20086;-57
2022/02/07 14:04:21;;;;;;;2.83;0.80;;;15.70;61.50;;;;;;5042849;28;20163;-56
2022/02/07 14:07:10;;;;;;;3.80;0.90;;;15.70;61.50;;;;;;5017640;28;20062;-57
2022/02/07 14:09:38;;;;;;;2.47;0.65;;;15.70;61.30;;;;;;5049355;28;20072;-59
2022/02/07 14:12:04;;;;;;;2.60;0.88;;;15.70;61.30;;;;;;5030597;28;20040;-59
2022/02/07 14:14:30;;;;;;;3.25;0.93;;;15.70;61.20;;;;;;5045584;28;20045;-60
2022/02/07 14:16:56;;;;;;;1.48;0.80;;;15.70;61.10;;;;;;5042452;28;20128;-61
2022/02/07 14:19:46;;;;;;;4.97;1.25;;;15.70;61.00;;;;;;5041562;28;20025;-58
2022/02/07 14:22:12;;;;;;;2.38;1.00;;;15.70;61.00;;;;;;5024843;28;20587;-58
2022/02/07 14:24:38;;;;;;;3.85;0.80;;;15.70;61.00;;;;;;5024164;28;20032;-58
2022/02/07 14:27:06;;;;;;;2.63;0.98;;;15.70;60.90;;;;;;5042282;28;20367;-56
2022/02/07 14:29:31;;;;;;;3.38;1.08;;;15.70;60.80;;;;;;5024115;28;20094;-57
2022/02/07 14:31:56;;;;;;;1.80;0.77;;;15.70;60.80;;;;;;5042744;28;20605;-55
2022/02/07 14:34:22;;;;;;;4.22;0.95;;;15.70;60.70;;;;;;5042825;28;20032;-57
2022/02/07 14:36:47;;;;;;;2.75;0.65;;;15.70;60.70;;;;;;5024392;28;20087;-57
2022/02/07 14:39:13;;;;;;;4.00;0.98;;;15.70;60.70;;;;;;5024589;28;20033;-56
2022/02/07 14:41:38;;;;;;;2.90;0.70;;;15.70;60.70;;;;;;5024729;28;20541;-59
2022/02/07 14:44:04;;;;;;;4.38;1.13;;;15.70;60.60;;;;;;5024232;28;20029;-58
2022/02/07 14:46:35;;;;;;;1.33;0.70;;;15.70;60.60;;;;;;5024392;28;20166;-54
2022/02/07 14:49:01;;;;;;;1.40;0.60;;;15.70;60.60;;;;;;5007945;28;20036;-58
2022/02/07 14:51:26;;;;;;;2.83;0.85;;;15.70;60.50;;;;;;5041398;28;20047;-56
2022/02/07 14:53:52;;;;;;;3.42;1.10;;;15.70;60.50;;;;;;5042386;28;20033;-57
2022/02/07 14:56:18;;;;;;;2.08;1.00;;;15.70;60.60;;;;;;5024406;28;20032;-55